Time;durP1;ratioP1;P1;durP2;ratioP2;P2;SDS_P1;SDS_P2;PMS_P1;PMS_P2;Temp;Humidity;BMP_temperature;BMP_pressure;BME280_temperature;BME280_humidity;BME280_pressure;Samples;Min_cycle;Max_cycle;Signal;HPM_P1;HPM_P2
2022/03/30 00:01:44;;;;;;;3.47;2.45;;;5.90;1.00;;;;;;5012916;28;20216;-81
2022/03/30 00:04:10;;;;;;;7.25;2.50;;;5.90;1.00;;;;;;5010113;28;20284;-81
2022/03/30 00:06:37;;;;;;;5.60;2.10;;;6.00;1.00;;;;;;5012364;28;20208;-83
2022/03/30 00:09:04;;;;;;;9.45;2.72;;;6.10;1.00;;;;;;5012480;28;20233;-84
2022/03/30 00:11:32;;;;;;;6.25;1.98;;;5.90;1.00;;;;;;5012638;28;20189;-83
2022/03/30 00:13:58;;;;;;;5.63;2.33;;;6.00;1.00;;;;;;5007960;28;20221;-82
2022/03/30 00:16:25;;;;;;;3.42;2.00;;;6.00;1.00;;;;;;5011354;28;20310;-82
2022/03/30 00:18:51;;;;;;;8.40;3.10;;;6.00;1.00;;;;;;5012214;28;20201;-82
2022/03/30 00:21:18;;;;;;;9.80;2.47;;;5.90;1.00;;;;;;5013339;28;20205;-83
2022/03/30 00:23:45;;;;;;;6.05;2.30;;;5.80;3.80;;;;;;5012056;28;20232;-81
2022/03/30 00:26:11;;;;;;;10.48;3.10;;;5.90;1.00;;;;;;5011620;28;20232;-82
2022/03/30 00:28:39;;;;;;;4.60;2.30;;;6.00;11.10;;;;;;5012484;28;20224;-82
2022/03/30 00:31:06;;;;;;;4.80;2.28;;;5.30;81.00;;;;;;5013634;28;20209;-82
2022/03/30 00:33:32;;;;;;;6.07;3.22;;;5.90;40.10;;;;;;5012144;28;20229;-83
2022/03/30 00:35:59;;;;;;;17.70;3.33;;;5.80;43.80;;;;;;5015054;28;20241;-81
2022/03/30 00:38:26;;;;;;;4.55;2.50;;;6.20;63.50;;;;;;5016327;28;20212;-81
2022/03/30 00:40:53;;;;;;;8.88;3.22;;;5.90;72.50;;;;;;5014497;28;20209;-84
2022/03/30 00:43:20;;;;;;;7.07;2.70;;;4.80;65.90;;;;;;5010968;28;20225;-82
2022/03/30 00:45:48;;;;;;;5.65;2.33;;;5.90;35.90;;;;;;5013268;28;20209;-82
2022/03/30 00:48:15;;;;;;;9.40;2.55;;;6.00;1.00;;;;;;5018133;28;20193;-82
2022/03/30 00:50:43;;;;;;;6.85;2.80;;;6.20;46.70;;;;;;5017531;28;20228;-81
2022/03/30 00:53:10;;;;;;;7.40;2.95;;;5.80;37.70;;;;;;5013200;28;20735;-82
2022/03/30 00:55:37;;;;;;;16.40;4.50;;;5.80;57.10;;;;;;5014472;28;20240;-81
2022/03/30 00:58:04;;;;;;;10.30;2.88;;;6.00;55.40;;;;;;5014184;28;20232;-81
2022/03/30 01:00:31;;;;;;;7.80;2.67;;;5.60;61.50;;;;;;5014773;28;20236;-81
2022/03/30 01:02:59;;;;;;;8.30;2.80;;;5.80;85.80;;;;;;5016442;28;20296;-80
2022/03/30 01:05:25;;;;;;;10.20;3.13;;;5.90;98.10;;;;;;5015580;28;20220;-80
2022/03/30 01:07:54;;;;;;;10.02;3.30;;;5.80;99.90;;;;;;5013664;28;20221;-82
2022/03/30 01:10:22;;;;;;;9.98;4.03;;;5.90;96.10;;;;;;5015870;28;20189;-82
2022/03/30 01:12:52;;;;;;;6.70;3.65;;;5.80;96.20;;;;;;5015558;28;20647;-81
2022/03/30 01:15:19;;;;;;;10.52;4.07;;;5.80;99.90;;;;;;5016574;28;20251;-81
2022/03/30 01:17:46;;;;;;;15.25;3.15;;;5.80;99.90;;;;;;5016026;28;20205;-80
2022/03/30 01:20:17;;;;;;;7.65;2.95;;;5.70;99.90;;;;;;5016907;28;20559;-81
2022/03/30 01:22:45;;;;;;;10.95;3.40;;;5.80;99.90;;;;;;5013424;28;20260;-82
2022/03/30 01:25:12;;;;;;;11.73;3.25;;;5.90;99.90;;;;;;5015535;28;20205;-82
2022/03/30 01:27:39;;;;;;;7.75;3.35;;;5.70;99.90;;;;;;5014995;28;20218;-80
2022/03/30 01:32:56;;;;;;;7.60;2.80;;;5.60;99.90;;;;;;5019561;23;20287;-80
2022/03/30 01:35:23;;;;;;;5.32;2.20;;;5.60;99.90;;;;;;5001775;28;20215;-79
2022/03/30 01:37:51;;;;;;;9.95;2.75;;;6.00;99.90;;;;;;5000683;28;20213;-80
2022/03/30 01:40:18;;;;;;;11.35;2.88;;;5.70;99.90;;;;;;4999900;28;20205;-80
2022/03/30 01:42:45;;;;;;;5.18;2.53;;;5.60;99.90;;;;;;4999887;28;20260;-80
2022/03/30 01:45:15;;;;;;;6.30;2.70;;;5.60;99.90;;;;;;5000049;28;20259;-80
2022/03/30 01:47:42;;;;;;;6.68;3.45;;;5.70;99.90;;;;;;5001530;28;20197;-81
2022/03/30 01:50:11;;;;;;;4.70;3.85;;;5.50;99.90;;;;;;5008482;28;20205;-80
2022/03/30 01:52:37;;;;;;;7.82;3.20;;;5.60;99.90;;;;;;5000342;28;20695;-80
2022/03/30 01:55:06;;;;;;;4.90;2.80;;;5.50;99.90;;;;;;5001046;28;20201;-80
2022/03/30 01:57:33;;;;;;;9.25;3.55;;;5.60;99.90;;;;;;4999842;28;20240;-80
2022/03/30 01:59:59;;;;;;;7.28;3.53;;;5.50;99.90;;;;;;5015346;28;20208;-79
2022/03/30 02:02:27;;;;;;;6.65;2.90;;;5.60;99.90;;;;;;5015056;28;20252;-79
2022/03/30 02:04:54;;;;;;;6.85;3.00;;;5.60;99.90;;;;;;5007344;28;20537;-79
2022/03/30 02:07:20;;;;;;;9.23;4.55;;;5.60;99.90;;;;;;5009557;28;20680;-80
2022/03/30 02:09:48;;;;;;;8.98;5.15;;;5.50;99.90;;;;;;5014466;28;20201;-79
2022/03/30 02:12:16;;;;;;;10.88;3.00;;;5.50;99.90;;;;;;5015788;28;20233;-79
2022/03/30 02:14:42;;;;;;;10.60;3.00;;;5.50;99.90;;;;;;5009222;28;20234;-79
2022/03/30 02:17:09;;;;;;;16.52;3.83;;;5.50;99.90;;;;;;5001532;28;20213;-80
2022/03/30 02:19:37;;;;;;;9.63;3.40;;;5.50;99.90;;;;;;5000812;28;20241;-80
2022/03/30 02:22:03;;;;;;;9.18;2.60;;;5.40;99.90;;;;;;5000404;28;20551;-79
2022/03/30 02:24:31;;;;;;;9.80;3.50;;;5.50;99.90;;;;;;5000558;28;20271;-79
2022/03/30 02:26:57;;;;;;;8.93;3.00;;;5.40;99.90;;;;;;5000524;28;20220;-80
2022/03/30 02:29:26;;;;;;;9.10;2.83;;;;;;;;;;5000547;28;20229;-80
2022/03/30 02:31:55;;;;;;;6.53;2.33;;;;;;;;;;4998884;28;20205;-79
2022/03/30 02:34:23;;;;;;;8.68;3.67;;;;;;;;;;4999608;28;20213;-80
2022/03/30 02:36:54;;;;;;;10.85;2.95;;;;;;;;;;4999704;28;20205;-81
2022/03/30 02:39:21;;;;;;;7.65;3.28;;;;;;;;;;5000063;28;20190;-81
2022/03/30 02:41:48;;;;;;;8.45;2.85;;;;;;;;;;4999316;28;20240;-80
2022/03/30 02:44:14;;;;;;;5.82;3.05;;;5.20;99.90;;;;;;4998874;28;20703;-81
2022/03/30 02:46:42;;;;;;;19.25;3.10;;;5.10;99.10;;;;;;4998549;28;20332;-81
2022/03/30 02:49:09;;;;;;;9.48;4.53;;;5.20;99.90;;;;;;4998293;28;20281;-79
2022/03/30 02:51:36;;;;;;;6.65;3.88;;;4.90;99.90;;;;;;4998794;28;20211;-81
2022/03/30 02:54:03;;;;;;;11.18;3.35;;;5.10;99.90;;;;;;4999303;28;20225;-81
2022/03/30 02:56:30;;;;;;;8.57;2.38;;;5.10;99.90;;;;;;4998749;28;20209;-79
2022/03/30 02:58:57;;;;;;;7.18;3.17;;;5.00;99.90;;;;;;4998879;28;20205;-80
2022/03/30 03:01:23;;;;;;;10.35;3.05;;;5.10;99.90;;;;;;4998231;28;20254;-80
2022/03/30 03:03:52;;;;;;;4.45;2.35;;;;;;;;;;4997869;28;20265;-79
2022/03/30 03:06:20;;;;;;;8.63;2.90;;;;;;;;;;5011865;28;20209;-80
2022/03/30 03:08:48;;;;;;;10.40;3.08;;;;;;;;;;5014416;28;20205;-81
2022/03/30 03:11:16;;;;;;;7.10;2.20;;;;;;;;;;5012877;28;20205;-80
2022/03/30 03:13:44;;;;;;;5.55;2.30;;;5.20;99.90;;;;;;5013380;28;20236;-80
2022/03/30 03:16:12;;;;;;;9.80;3.30;;;5.10;1.00;;;;;;5015563;28;20204;-79
2022/03/30 03:18:39;;;;;;;7.70;3.05;;;5.00;1.00;;;;;;5014771;28;20265;-78
2022/03/30 03:21:07;;;;;;;11.90;3.50;;;5.00;1.00;;;;;;5015005;28;20205;-79
2022/03/30 03:23:34;;;;;;;5.05;3.03;;;4.90;1.00;;;;;;5011085;28;20232;-81
2022/03/30 03:26:00;;;;;;;8.15;3.55;;;4.90;1.00;;;;;;5012428;28;20209;-80
2022/03/30 03:28:27;;;;;;;10.02;2.80;;;5.00;99.90;;;;;;5013033;28;20481;-79
2022/03/30 03:30:54;;;;;;;9.70;3.67;;;5.00;1.00;;;;;;5012306;28;20259;-80
2022/03/30 03:33:21;;;;;;;8.85;3.30;;;4.90;1.00;;;;;;5011371;28;20223;-81
2022/03/30 03:35:48;;;;;;;8.32;3.85;;;4.90;1.00;;;;;;5001531;28;20260;-81
2022/03/30 03:38:16;;;;;;;4.50;2.22;;;4.80;1.00;;;;;;5000756;28;20297;-80
2022/03/30 03:40:43;;;;;;;5.78;2.80;;;4.80;1.00;;;;;;5001075;28;20233;-80
2022/03/30 03:43:10;;;;;;;3.60;1.98;;;4.90;99.90;;;;;;5000890;28;20225;-81
2022/03/30 03:45:36;;;;;;;8.02;2.58;;;4.90;1.00;;;;;;5000518;28;20288;-79
2022/03/30 03:48:03;;;;;;;6.53;2.70;;;4.90;1.00;;;;;;5012626;28;20205;-79
2022/03/30 03:50:30;;;;;;;6.53;2.33;;;4.90;1.00;;;;;;5015458;28;20208;-80
2022/03/30 03:52:57;;;;;;;4.47;2.35;;;5.00;1.00;;;;;;5015631;28;20216;-79
2022/03/30 03:55:25;;;;;;;6.00;2.50;;;4.90;1.00;;;;;;5013771;28;20228;-79
2022/03/30 03:57:52;;;;;;;3.92;2.70;;;4.80;1.00;;;;;;5016354;28;20251;-79
2022/03/30 04:00:19;;;;;;;8.10;2.25;;;4.80;1.00;;;;;;5011254;28;20209;-79
2022/03/30 04:02:46;;;;;;;9.02;2.53;;;4.80;1.00;;;;;;5015775;28;20252;-79
2022/03/30 04:05:14;;;;;;;5.10;2.80;;;4.80;1.00;;;;;;5015597;28;20221;-78
2022/03/30 04:07:41;;;;;;;6.32;2.40;;;4.80;1.00;;;;;;5015143;28;20269;-80
2022/03/30 04:10:09;;;;;;;8.00;3.53;;;4.80;1.00;;;;;;5018970;28;20189;-80
2022/03/30 04:12:37;;;;;;;5.03;3.35;;;4.70;1.00;;;;;;5019126;28;20217;-80
2022/03/30 04:15:05;;;;;;;11.35;3.00;;;4.60;1.00;;;;;;5017712;28;20232;-80
2022/03/30 04:17:32;;;;;;;8.20;3.15;;;4.70;1.00;;;;;;5012782;28;20633;-79
2022/03/30 04:19:59;;;;;;;10.98;3.88;;;4.80;99.90;;;;;;5003357;28;20205;-80
2022/03/30 04:22:25;;;;;;;9.90;3.38;;;4.70;1.00;;;;;;5004115;28;20228;-80
2022/03/30 04:24:52;;;;;;;9.25;3.45;;;;;;;;;;5014794;28;20204;-80
2022/03/30 04:27:19;;;;;;;5.50;2.60;;;4.80;1.00;;;;;;5017785;28;20216;-79
2022/03/30 04:29:47;;;;;;;6.47;2.72;;;4.70;1.00;;;;;;5019555;28;20201;-79
2022/03/30 04:32:14;;;;;;;5.93;2.85;;;4.70;1.00;;;;;;5011023;28;20209;-80
2022/03/30 04:34:40;;;;;;;12.05;3.20;;;4.60;1.00;;;;;;5012667;28;20189;-79
2022/03/30 04:37:07;;;;;;;11.25;3.67;;;4.70;1.00;;;;;;5016766;28;20205;-80
2022/03/30 04:39:34;;;;;;;8.02;3.10;;;4.70;1.00;;;;;;5019580;28;20236;-80
2022/03/30 04:42:01;;;;;;;8.60;3.63;;;4.70;99.90;;;;;;5007859;28;20217;-80
2022/03/30 04:44:27;;;;;;;5.18;2.80;;;4.70;99.90;;;;;;5005404;28;20221;-81
2022/03/30 04:46:55;;;;;;;11.57;3.65;;;4.70;1.00;;;;;;5004011;28;20228;-81
2022/03/30 04:49:22;;;;;;;10.95;3.05;;;4.70;1.00;;;;;;5005352;28;20232;-80
2022/03/30 04:51:49;;;;;;;5.45;2.95;;;4.90;1.00;;;;;;5012509;28;20680;-79
2022/03/30 04:54:16;;;;;;;11.27;4.35;;;4.80;1.00;;;;;;5005970;28;20245;-79
2022/03/30 04:56:43;;;;;;;12.32;5.90;;;4.80;1.00;;;;;;5004260;28;20312;-80
2022/03/30 04:59:09;;;;;;;7.05;3.28;;;4.80;1.00;;;;;;5001919;28;20209;-81
2022/03/30 05:01:37;;;;;;;6.10;3.67;;;4.90;1.00;;;;;;5002552;28;20205;-80
2022/03/30 05:04:06;;;;;;;6.28;3.42;;;5.00;1.00;;;;;;5000894;28;20297;-81
2022/03/30 05:06:34;;;;;;;9.05;4.68;;;5.10;1.00;;;;;;5002111;28;20719;-81
2022/03/30 05:09:00;;;;;;;7.75;3.60;;;5.00;1.00;;;;;;5003020;28;20204;-81
2022/03/30 05:11:27;;;;;;;19.23;3.90;;;5.00;1.00;;;;;;5011141;28;20236;-81
2022/03/30 05:13:53;;;;;;;9.05;3.63;;;5.00;1.00;;;;;;5000116;28;20248;-80
2022/03/30 05:16:20;;;;;;;8.75;3.72;;;5.10;1.00;;;;;;5000012;28;20624;-80
2022/03/30 05:18:47;;;;;;;13.73;3.17;;;5.10;1.00;;;;;;5000113;28;20236;-80
2022/03/30 05:21:14;;;;;;;10.00;3.65;;;5.10;1.00;;;;;;4999047;28;20259;-80
2022/03/30 05:23:41;;;;;;;11.90;2.78;;;5.20;1.00;;;;;;5001145;28;20256;-80
2022/03/30 05:26:08;;;;;;;7.07;3.45;;;5.10;1.00;;;;;;5000406;28;20232;-80
2022/03/30 05:28:38;;;;;;;5.95;3.13;;;5.20;1.00;;;;;;5001276;28;20233;-80
2022/03/30 05:31:04;;;;;;;9.52;3.30;;;5.20;1.00;;;;;;5001891;28;20193;-80
2022/03/30 05:33:31;;;;;;;8.05;3.75;;;5.10;1.00;;;;;;5000677;28;20263;-80
2022/03/30 05:35:58;;;;;;;5.43;3.08;;;5.20;99.90;;;;;;5001971;28;20205;-80
2022/03/30 05:38:26;;;;;;;16.77;4.10;;;5.30;1.00;;;;;;5001438;28;20208;-81
2022/03/30 05:40:52;;;;;;;10.45;3.70;;;5.30;1.00;;;;;;5002417;28;20201;-81
2022/03/30 05:43:20;;;;;;;8.77;3.17;;;5.40;1.00;;;;;;5002052;28;20229;-80
2022/03/30 05:45:47;;;;;;;5.78;4.25;;;5.30;1.00;;;;;;5002025;28;20259;-80
2022/03/30 05:48:13;;;;;;;10.15;3.15;;;5.30;1.00;;;;;;5000631;28;20602;-79
2022/03/30 05:50:40;;;;;;;13.77;3.78;;;5.30;1.00;;;;;;4999290;28;20213;-80
2022/03/30 05:53:07;;;;;;;6.78;3.85;;;5.30;1.00;;;;;;5008570;28;20252;-80
2022/03/30 05:55:35;;;;;;;4.25;2.75;;;5.50;1.00;;;;;;5015339;28;20202;-79
2022/03/30 05:58:02;;;;;;;9.30;3.45;;;5.50;1.00;;;;;;5015742;28;20201;-79
2022/03/30 06:00:29;;;;;;;6.07;3.00;;;5.60;1.00;;;;;;5005518;28;20315;-79
2022/03/30 06:02:56;;;;;;;5.93;3.25;;;5.70;1.00;;;;;;4999902;28;20237;-80
2022/03/30 06:05:22;;;;;;;6.95;2.75;;;5.60;1.00;;;;;;5001503;28;20217;-79
2022/03/30 06:07:49;;;;;;;10.93;3.53;;;5.50;1.00;;;;;;5004381;28;20213;-80
2022/03/30 06:10:17;;;;;;;6.78;3.20;;;5.60;1.00;;;;;;4999691;28;20204;-79
2022/03/30 06:12:45;;;;;;;5.68;2.40;;;5.60;1.00;;;;;;4998915;28;20289;-80
2022/03/30 06:15:11;;;;;;;15.07;4.60;;;6.10;1.00;;;;;;4999390;28;20660;-80
2022/03/30 06:17:38;;;;;;;12.80;3.20;;;5.70;1.00;;;;;;4999869;28;20677;-80
2022/03/30 06:20:06;;;;;;;8.40;2.80;;;5.60;1.00;;;;;;5004604;28;20232;-80
2022/03/30 06:22:33;;;;;;;8.98;3.28;;;5.60;1.00;;;;;;5005405;28;20225;-80
2022/03/30 06:25:00;;;;;;;4.80;4.00;;;5.70;1.00;;;;;;5008395;28;20229;-80
2022/03/30 06:27:27;;;;;;;10.77;3.03;;;5.80;1.00;;;;;;5007643;28;20201;-80
2022/03/30 06:29:55;;;;;;;7.78;3.90;;;5.70;1.00;;;;;;5009550;28;20209;-80
2022/03/30 06:32:22;;;;;;;7.70;2.97;;;5.90;1.00;;;;;;5005455;28;20248;-81
2022/03/30 06:34:48;;;;;;;7.38;2.75;;;6.00;1.00;;;;;;5010956;28;20394;-79
2022/03/30 06:37:15;;;;;;;8.88;2.97;;;5.70;1.00;;;;;;5009965;28;20205;-80
2022/03/30 06:39:41;;;;;;;14.05;3.38;;;6.20;1.00;;;;;;5007388;28;20232;-81
2022/03/30 06:42:08;;;;;;;6.65;2.58;;;5.90;99.90;;;;;;5007559;28;20205;-81
2022/03/30 06:44:35;;;;;;;13.95;3.50;;;6.00;1.00;;;;;;5004155;28;20221;-80
2022/03/30 06:47:03;;;;;;;8.57;3.05;;;6.10;1.00;;;;;;5006127;28;20210;-80
2022/03/30 06:49:30;;;;;;;6.57;3.13;;;6.00;1.00;;;;;;5003177;28;20229;-81
2022/03/30 06:51:56;;;;;;;9.48;3.92;;;6.10;1.00;;;;;;5003047;28;20244;-80
2022/03/30 06:54:23;;;;;;;6.20;2.83;;;5.90;1.00;;;;;;5003202;28;20209;-81
2022/03/30 06:56:49;;;;;;;5.38;2.42;;;5.90;1.00;;;;;;5002916;28;20642;-80
2022/03/30 06:59:18;;;;;;;10.65;2.58;;;6.50;99.90;;;;;;5006127;28;20213;-81
2022/03/30 07:01:44;;;;;;;9.30;2.80;;;6.20;1.00;;;;;;5005120;28;20209;-80
2022/03/30 07:04:12;;;;;;;9.05;4.00;;;6.40;1.00;;;;;;5003735;28;20252;-81
2022/03/30 07:10:15;;;;;;;6.18;2.90;;;6.50;99.90;;;;;;5007262;28;20212;-80
2022/03/30 07:12:10;;;;;;;9.55;3.67;;;6.60;99.90;;;;;;5006704;28;20215;-81
2022/03/30 07:14:37;;;;;;;10.52;2.97;;;6.60;1.00;;;;;;5008218;28;20208;-80
2022/03/30 07:17:04;;;;;;;6.53;2.92;;;6.20;1.00;;;;;;5006549;28;20206;-80
2022/03/30 07:19:32;;;;;;;15.07;3.47;;;7.00;1.00;;;;;;5008747;28;20209;-80
2022/03/30 07:21:59;;;;;;;6.68;3.45;;;6.70;99.90;;;;;;5003196;28;20952;-81
2022/03/30 07:24:25;;;;;;;7.38;2.80;;;6.70;1.00;;;;;;5001941;28;20241;-80
2022/03/30 07:26:52;;;;;;;9.27;3.60;;;6.90;1.00;;;;;;5009419;28;20201;-81
2022/03/30 07:29:19;;;;;;;9.43;3.50;;;6.90;1.00;;;;;;5007607;28;20457;-86
2022/03/30 07:31:45;;;;;;;11.20;2.90;;;6.90;1.00;;;;;;5007994;28;20232;-81
2022/03/30 07:34:12;;;;;;;9.10;3.07;;;7.00;1.00;;;;;;5028282;23;20488;-84
2022/03/30 07:36:40;;;;;;;4.00;2.55;;;7.20;1.00;;;;;;5004766;28;20414;-81
2022/03/30 07:39:07;;;;;;;10.30;2.97;;;8.10;1.00;;;;;;5006947;28;20296;-82
2022/03/30 07:41:33;;;;;;;16.25;2.90;;;7.60;1.00;;;;;;5000518;28;20546;-84
2022/03/30 07:44:00;;;;;;;9.63;4.03;;;7.00;1.00;;;;;;5000984;28;20312;-84
2022/03/30 07:46:27;;;;;;;6.40;2.73;;;7.00;1.00;;;;;;5013647;28;20463;-83
2022/03/30 07:48:54;;;;;;;6.77;2.93;;;7.00;1.00;;;;;;5017197;28;20414;-82
2022/03/30 07:51:20;;;;;;;8.70;3.90;;;7.50;1.00;;;;;;5010571;28;20445;-84
2022/03/30 07:53:48;;;;;;;8.05;3.03;;;7.30;1.00;;;;;;5002360;28;20444;-81
2022/03/30 07:56:15;;;;;;;6.63;3.33;;;7.10;1.00;;;;;;5003325;28;20232;-81
2022/03/30 07:58:42;;;;;;;11.83;3.10;;;7.10;1.00;;;;;;5004281;28;20516;-84
2022/03/30 08:01:09;;;;;;;12.20;2.50;;;7.60;1.00;;;;;;5001609;28;20937;-82
2022/03/30 08:03:36;;;;;;;7.00;2.50;;;7.70;99.90;;;;;;5001671;28;20473;-84
2022/03/30 08:06:03;;;;;;;12.17;3.00;;;7.90;1.00;;;;;;5007736;28;20505;-83
2022/03/30 08:08:29;;;;;;;10.93;3.10;;;7.40;99.90;;;;;;5007087;28;20424;-84
2022/03/30 08:10:57;;;;;;;10.00;3.10;;;7.30;1.00;;;;;;5005861;28;20460;-83
2022/03/30 08:13:24;;;;;;;4.57;2.43;;;6.20;1.00;;;;;;5006659;28;20966;-84
2022/03/30 08:15:51;;;;;;;5.43;2.90;;;7.60;99.90;;;;;;5007188;28;20934;-85
2022/03/30 08:18:17;;;;;;;17.67;3.03;;;7.00;99.90;;;;;;5006719;28;20512;-83
2022/03/30 08:23:28;;;;;;;8.77;3.70;;;7.60;99.90;;;;;;5008234;28;20529;-84
2022/03/30 08:25:56;;;;;;;5.40;2.60;;;7.90;99.90;;;;;;5008871;28;20453;-84
2022/03/30 08:28:23;;;;;;;10.03;3.50;;;7.70;99.90;;;;;;5010289;28;20418;-84
2022/03/30 08:30:52;;;;;;;3.53;2.80;;;7.90;99.90;;;;;;5013563;28;20419;-83
2022/03/30 08:33:23;;;;;;;8.83;3.27;;;7.80;99.90;;;;;;5015501;28;20570;-82
2022/03/30 08:35:52;;;;;;;16.37;5.47;;;7.30;99.90;;;;;;5014113;28;20442;-82
2022/03/30 08:38:18;;;;;;;12.90;4.00;;;7.70;99.90;;;;;;5010306;28;20455;-82
2022/03/30 08:40:45;;;;;;;11.87;3.30;;;7.80;99.90;;;;;;5012683;28;20480;-81
2022/03/30 08:43:13;;;;;;;11.97;4.07;;;8.20;99.90;;;;;;5015589;28;20446;-83
2022/03/30 08:45:41;;;;;;;4.83;2.97;;;8.40;99.90;;;;;;5015328;28;20571;-82
2022/03/30 08:48:08;;;;;;;14.20;3.80;;;8.30;99.90;;;;;;5013285;28;20450;-83
2022/03/30 08:50:36;;;;;;;7.13;3.80;;;8.10;99.90;;;;;;5006415;28;20421;-84
2022/03/30 08:53:05;;;;;;;7.60;2.90;;;7.90;99.90;;;;;;5010104;28;20477;-84
2022/03/30 08:55:32;;;;;;;9.13;4.22;;;8.10;99.90;;;;;;5006106;28;20863;-83
2022/03/30 08:57:59;;;;;;;9.73;4.10;;;8.10;99.90;;;;;;5006313;28;20235;-84
2022/03/30 09:00:34;;;;;;;9.90;2.83;;;8.30;99.90;;;;;;5010365;28;20484;-80
2022/03/30 09:03:01;;;;;;;5.33;2.43;;;7.40;99.90;;;;;;5014959;28;20472;-82
2022/03/30 09:05:29;;;;;;;8.73;2.83;;;7.50;99.90;;;;;;5014307;28;20522;-82
2022/03/30 09:08:09;;;;;;;8.17;2.83;;;8.40;99.90;;;;;;5013036;28;20470;-83
2022/03/30 09:10:36;;;;;;;7.47;2.90;;;8.10;99.90;;;;;;5006681;28;20777;-84
2022/03/30 09:13:05;;;;;;;7.60;2.93;;;8.70;99.90;;;;;;5007213;28;20608;-85
2022/03/30 09:15:34;;;;;;;12.57;3.00;;;9.20;99.90;;;;;;5009511;28;20437;-82
2022/03/30 09:18:02;;;;;;;7.70;2.57;;;9.20;99.90;;;;;;5013403;28;20454;-82
2022/03/30 09:20:29;;;;;;;4.33;3.30;;;8.50;99.90;;;;;;5011549;28;20526;-82
2022/03/30 09:22:58;;;;;;;9.50;3.83;;;8.70;89.00;;;;;;5013948;28;20446;-82
2022/03/30 09:25:27;;;;;;;13.80;2.53;;;8.50;99.90;;;;;;5012937;28;20484;-82
2022/03/30 09:27:55;;;;;;;9.93;2.77;;;8.90;99.90;;;;;;5015846;28;20458;-81
2022/03/30 09:30:24;;;;;;;5.67;3.07;;;8.50;99.90;;;;;;5017585;28;20429;-82
2022/03/30 09:32:54;;;;;;;9.67;2.50;;;8.40;36.00;;;;;;5015840;28;20462;-83
2022/03/30 09:35:25;;;;;;;6.50;1.93;;;8.40;99.90;;;;;;5012104;28;20460;-83
2022/03/30 09:38:02;;;;;;;4.17;1.93;;;9.30;99.90;;;;;;5009875;28;20435;-82
2022/03/30 09:40:44;;;;;;;11.37;2.70;;;9.20;99.90;;;;;;5008828;28;20451;-84
2022/03/30 09:43:20;;;;;;;4.87;2.30;;;8.70;99.90;;;;;;5009524;28;20471;-84
2022/03/30 09:45:49;;;;;;;3.43;2.40;;;8.60;99.90;;;;;;5015939;28;20486;-83
2022/03/30 09:48:20;;;;;;;8.80;3.33;;;9.00;99.90;;;;;;5014304;28;20527;-84
2022/03/30 09:50:51;;;;;;;7.60;2.50;;;9.50;99.90;;;;;;5012934;28;20391;-84
2022/03/30 09:53:21;;;;;;;4.97;2.17;;;9.10;99.90;;;;;;5012778;28;20439;-84
2022/03/30 09:55:53;;;;;;;8.90;2.30;;;9.00;99.90;;;;;;5013531;28;20435;-84
2022/03/30 09:58:21;;;;;;;13.47;3.47;;;8.70;99.90;;;;;;5012544;28;20474;-85
2022/03/30 10:01:03;;;;;;;3.80;1.90;;;8.70;99.90;;;;;;5012023;28;20427;-86
2022/03/30 10:03:41;;;;;;;3.63;2.33;;;8.40;99.90;;;;;;5010063;28;20463;-82
2022/03/30 10:06:10;;;;;;;13.47;3.50;;;9.50;23.00;;;;;;5010506;28;20508;-83
2022/03/30 10:08:36;;;;;;;9.73;2.40;;;9.60;99.90;;;;;;5010785;28;20480;-84
2022/03/30 10:11:03;;;;;;;7.43;3.33;;;9.30;99.90;;;;;;5009159;28;20423;-84
2022/03/30 10:13:31;;;;;;;5.57;2.10;;;9.10;99.90;;;;;;5007495;28;20476;-82
2022/03/30 10:15:58;;;;;;;5.80;2.20;;;9.90;99.90;;;;;;5008112;28;20430;-84
2022/03/30 10:18:25;;;;;;;4.37;1.80;;;9.40;99.90;;;;;;5014874;28;20431;-84
2022/03/30 10:21:15;;;;;;;4.27;2.00;;;9.10;99.90;;;;;;5016076;28;20524;-82
2022/03/30 10:23:52;;;;;;;3.93;2.30;;;9.90;99.90;;;;;;5017490;28;20476;-86
2022/03/30 10:26:33;;;;;;;7.07;2.70;;;10.00;99.90;;;;;;5018144;28;20460;-83
2022/03/30 10:29:05;;;;;;;3.33;1.70;;;9.90;99.90;;;;;;5017542;28;20420;-82
2022/03/30 10:31:32;;;;;;;12.30;9.70;;;9.60;99.90;;;;;;5017427;28;20415;-82
2022/03/30 10:34:19;;;;;;;3.73;2.13;;;9.80;99.90;;;;;;5010710;28;20695;-84
2022/03/30 10:36:59;;;;;;;6.43;2.57;;;9.80;99.90;;;;;;5009407;28;20934;-83
2022/03/30 10:39:27;;;;;;;6.33;2.40;;;8.60;99.90;;;;;;5007939;28;20426;-84
2022/03/30 10:41:56;;;;;;;4.83;1.90;;;9.30;99.90;;;;;;5006690;28;20459;-83
2022/03/30 10:44:37;;;;;;;7.53;2.60;;;9.10;99.90;;;;;;5009929;28;20479;-84
2022/03/30 10:47:12;;;;;;;8.83;2.60;;;9.20;99.90;;;;;;5009227;28;20529;-82
2022/03/30 10:49:44;;;;;;;4.17;2.37;;;9.20;99.90;;;;;;5004478;28;20410;-84
2022/03/30 10:52:35;;;;;;;7.83;2.43;;;9.10;99.90;;;;;;5003007;28;20898;-83
2022/03/30 10:55:38;;;;;;;2.67;2.10;;;9.30;99.90;;;;;;5010231;28;20476;-81
2022/03/30 10:58:06;;;;;;;3.10;2.53;;;9.80;99.90;;;;;;5004634;28;20861;-81
2022/03/30 11:00:36;;;;;;;13.83;2.20;;;9.60;99.90;;;;;;5004178;28;20456;-82
2022/03/30 11:03:17;;;;;;;6.07;2.30;;;9.30;99.90;;;;;;5010990;28;20936;-83
2022/03/30 11:05:45;;;;;;;6.20;2.53;;;9.20;99.90;;;;;;5017100;28;20484;-83
2022/03/30 11:08:51;;;;;;;6.03;2.20;;;9.20;99.90;;;;;;5016942;28;20451;-84
2022/03/30 11:11:24;;;;;;;2.67;1.83;;;9.40;99.90;;;;;;5017888;28;20456;-82
2022/03/30 11:14:10;;;;;;;6.63;2.33;;;9.50;99.90;;;;;;5017907;28;20491;-82
2022/03/30 11:16:48;;;;;;;5.90;3.10;;;9.40;99.90;;;;;;5014065;28;20445;-82
2022/03/30 11:19:15;;;;;;;6.83;2.40;;;9.30;99.90;;;;;;5007654;28;20445;-82
2022/03/30 11:21:53;;;;;;;5.83;2.30;;;9.30;99.90;;;;;;5005543;28;20452;-84
2022/03/30 11:24:23;;;;;;;4.57;2.37;;;9.60;1.00;;;;;;5003504;28;20472;-84
2022/03/30 11:27:19;;;;;;;12.40;3.13;;;9.70;99.90;;;;;;5001993;28;20462;-84
2022/03/30 11:29:57;;;;;;;8.37;3.07;;;9.40;99.90;;;;;;5002258;28;20430;-83
2022/03/30 11:33:01;;;;;;;6.70;3.10;;;9.20;99.90;;;;;;5009575;28;20450;-83
2022/03/30 11:35:32;;;;;;;5.00;2.67;;;9.30;99.90;;;;;;5004908;28;20490;-84
2022/03/30 11:38:08;;;;;;;5.80;2.90;;;9.60;99.90;;;;;;5003309;28;20447;-82
2022/03/30 11:40:37;;;;;;;6.40;2.83;;;9.50;99.90;;;;;;5002696;28;20536;-83
2022/03/30 11:43:05;;;;;;;6.73;3.10;;;9.50;99.90;;;;;;5001208;28;20468;-82
2022/03/30 11:45:33;;;;;;;7.30;3.10;;;9.40;99.90;;;;;;5000663;28;20484;-83
2022/03/30 11:48:01;;;;;;;7.03;4.00;;;9.90;99.90;;;;;;5001346;28;20803;-83
2022/03/30 11:50:31;;;;;;;7.83;4.20;;;10.30;99.90;;;;;;5000423;28;20448;-82
2022/03/30 11:53:00;;;;;;;4.17;3.30;;;10.20;62.60;;;;;;5007006;28;20448;-83
2022/03/30 11:55:28;;;;;;;7.27;3.63;;;10.30;99.90;;;;;;5003416;28;20451;-83
2022/03/30 11:57:56;;;;;;;8.73;3.23;;;9.60;99.90;;;;;;5001856;28;20423;-83
2022/03/30 12:00:26;;;;;;;4.27;3.03;;;9.80;99.90;;;;;;5000748;28;20452;-82
2022/03/30 12:02:56;;;;;;;4.77;3.37;;;9.60;53.90;;;;;;5002816;28;20440;-84
2022/03/30 12:05:24;;;;;;;3.57;3.10;;;9.40;99.90;;;;;;5001094;28;20467;-84
2022/03/30 12:07:53;;;;;;;7.43;3.50;;;9.70;99.90;;;;;;5001119;28;20495;-83
2022/03/30 12:10:20;;;;;;;5.85;3.10;;;9.60;99.90;;;;;;5015683;28;20510;-84
2022/03/30 12:12:50;;;;;;;7.03;3.70;;;9.90;1.00;;;;;;5017394;28;20237;-81
2022/03/30 12:15:19;;;;;;;8.33;3.40;;;9.80;99.90;;;;;;5017969;28;20429;-83
2022/03/30 12:17:53;;;;;;;5.00;3.37;;;9.70;99.90;;;;;;5018057;28;20415;-81
2022/03/30 12:20:25;;;;;;;12.17;3.83;;;10.50;99.90;;;;;;5016696;28;20423;-83
2022/03/30 12:23:00;;;;;;;7.00;3.67;;;10.40;99.90;;;;;;5011786;28;20454;-83
2022/03/30 12:25:29;;;;;;;6.70;3.00;;;10.00;27.90;;;;;;5008042;28;20432;-83
2022/03/30 12:27:56;;;;;;;5.63;3.97;;;10.10;99.90;;;;;;5003013;28;20482;-82
2022/03/30 12:30:23;;;;;;;9.23;3.57;;;9.70;99.90;;;;;;5005568;28;20456;-83
2022/03/30 12:32:54;;;;;;;4.70;3.63;;;10.00;99.90;;;;;;5010560;28;20452;-82
2022/03/30 12:35:21;;;;;;;6.00;3.70;;;9.90;99.90;;;;;;5005394;28;20452;-84
2022/03/30 12:37:49;;;;;;;4.90;4.47;;;10.00;99.90;;;;;;5005168;28;20822;-84
2022/03/30 12:40:20;;;;;;;5.33;3.47;;;10.10;99.90;;;;;;5004387;28;20452;-83
2022/03/30 12:42:47;;;;;;;5.13;3.37;;;10.10;1.00;;;;;;5004563;28;20949;-85
2022/03/30 12:45:16;;;;;;;5.80;4.10;;;10.10;99.90;;;;;;5004833;28;20519;-84
2022/03/30 12:47:48;;;;;;;3.77;3.47;;;9.90;99.90;;;;;;5002917;28;20484;-83
2022/03/30 12:50:19;;;;;;;4.30;3.43;;;9.90;99.90;;;;;;5005120;28;20519;-84
2022/03/30 12:52:49;;;;;;;5.20;2.93;;;9.60;1.00;;;;;;5004920;28;20814;-83
2022/03/30 12:55:23;;;;;;;6.18;2.60;;;9.60;99.90;;;;;;5003871;28;20433;-82
2022/03/30 12:57:55;;;;;;;12.60;3.80;;;9.50;99.90;;;;;;5007443;28;20182;-80
2022/03/30 13:00:25;;;;;;;3.97;3.60;;;9.60;99.90;;;;;;5005366;28;20436;-84
2022/03/30 13:03:19;;;;;;;11.17;4.20;;;9.40;39.50;;;;;;5003750;28;20448;-83
2022/03/30 13:05:49;;;;;;;5.30;3.50;;;9.30;99.90;;;;;;4991822;28;20471;-85
2022/03/30 13:08:18;;;;;;;13.30;3.63;;;8.70;99.90;;;;;;5009847;28;20451;-84
2022/03/30 13:10:54;;;;;;;4.63;3.73;;;9.60;99.90;;;;;;5009627;28;20541;-83
2022/03/30 13:13:23;;;;;;;8.13;3.10;;;9.40;99.90;;;;;;5008994;28;20460;-84
2022/03/30 13:15:50;;;;;;;6.00;3.73;;;10.00;99.90;;;;;;5008115;28;20883;-83
2022/03/30 13:18:19;;;;;;;4.20;3.37;;;9.60;99.90;;;;;;5005724;28;20453;-83
2022/03/30 13:20:59;;;;;;;8.47;4.43;;;9.60;99.90;;;;;;5004841;28;20437;-83